Time;durP1;ratioP1;P1;durP2;ratioP2;P2;SDS_P1;SDS_P2;PMS_P1;PMS_P2;Temp;Humidity;BMP_temperature;BMP_pressure;BME280_temperature;BME280_humidity;BME280_pressure;Samples;Min_cycle;Max_cycle;Signal;HPM_P1;HPM_P2
2023/01/14 00:00:22;;;;;;;10.87;2.83;;;6.60;99.90;;;;;;6264970;22;20204;-83
2023/01/14 00:02:48;;;;;;;15.23;1.93;;;6.60;99.90;;;;;;6268958;22;20206;-83
2023/01/14 00:05:13;;;;;;;11.00;2.27;;;6.50;99.90;;;;;;6266064;22;20159;-85
2023/01/14 00:07:39;;;;;;;7.53;2.20;;;6.40;99.90;;;;;;6266712;22;20176;-84
2023/01/14 00:10:05;;;;;;;11.40;2.40;;;6.40;99.90;;;;;;6266728;22;20230;-85
2023/01/14 00:12:30;;;;;;;7.65;2.13;;;6.40;99.90;;;;;;6270330;22;20167;-83
2023/01/14 00:14:56;;;;;;;19.57;2.23;;;6.50;99.90;;;;;;6270012;22;20217;-85
2023/01/14 00:17:21;;;;;;;7.57;1.97;;;6.40;99.90;;;;;;6275002;22;20337;-83
2023/01/14 00:19:47;;;;;;;8.87;2.60;;;6.40;99.90;;;;;;6274681;22;20267;-83
2023/01/14 00:22:12;;;;;;;8.87;2.00;;;6.30;99.90;;;;;;6266127;22;20180;-83
2023/01/14 00:24:38;;;;;;;10.40;1.63;;;6.30;99.90;;;;;;6269351;22;20201;-82
2023/01/14 00:27:03;;;;;;;8.60;1.93;;;6.20;99.90;;;;;;6268651;22;20187;-82
2023/01/14 00:29:31;;;;;;;6.33;1.53;;;6.20;99.90;;;;;;6268231;22;20140;-82
2023/01/14 00:31:59;;;;;;;12.10;2.55;;;6.10;99.90;;;;;;6270629;22;20242;-84
2023/01/14 00:34:27;;;;;;;18.00;1.88;;;6.00;99.90;;;;;;6270774;22;20193;-83
2023/01/14 00:36:53;;;;;;;11.02;3.17;;;6.10;99.90;;;;;;6272557;22;20197;-83
2023/01/14 00:39:19;;;;;;;13.82;2.53;;;6.20;99.90;;;;;;6266070;22;20159;-82
2023/01/14 00:41:45;;;;;;;20.83;3.35;;;6.20;99.90;;;;;;6273243;22;20354;-82
2023/01/14 00:44:11;;;;;;;10.53;2.67;;;6.20;99.90;;;;;;6269174;22;20205;-84
2023/01/14 00:46:38;;;;;;;6.68;1.67;;;6.10;99.90;;;;;;6270331;22;20176;-83
2023/01/14 00:49:06;;;;;;;7.28;1.40;;;6.10;99.90;;;;;;6273483;22;20147;-82
2023/01/14 00:51:32;;;;;;;7.55;2.03;;;6.10;99.90;;;;;;6270740;22;20179;-84
2023/01/14 00:53:59;;;;;;;7.80;1.40;;;6.10;99.90;;;;;;6266341;22;20152;-83
2023/01/14 00:56:25;;;;;;;9.32;1.70;;;6.00;99.90;;;;;;6267051;22;20176;-83
2023/01/14 00:58:51;;;;;;;16.77;2.63;;;6.00;99.90;;;;;;6268683;22;20151;-86
2023/01/14 01:01:17;;;;;;;12.13;2.80;;;6.00;99.90;;;;;;6266285;22;20421;-82
2023/01/14 01:03:46;;;;;;;8.90;1.52;;;6.10;99.90;;;;;;6275458;22;20140;-83
2023/01/14 01:06:14;;;;;;;13.95;2.47;;;6.00;99.90;;;;;;6284773;22;20305;-84
2023/01/14 01:08:39;;;;;;;11.65;2.33;;;6.00;99.90;;;;;;6270612;22;20931;-85
2023/01/14 01:11:06;;;;;;;8.87;2.80;;;6.00;99.90;;;;;;6269155;22;20232;-83
2023/01/14 01:13:32;;;;;;;8.45;2.40;;;6.10;99.90;;;;;;6266776;22;20227;-85
2023/01/14 01:16:06;;;;;;;9.60;2.80;;;6.10;99.90;;;;;;6265473;22;20568;-83
2023/01/14 01:18:32;;;;;;;7.57;2.33;;;6.10;99.90;;;;;;6273428;22;20516;-85
2023/01/14 01:21:14;;;;;;;8.68;1.92;;;6.20;99.90;;;;;;6271183;22;20160;-85
2023/01/14 01:23:40;;;;;;;3.65;1.95;;;6.20;99.90;;;;;;6272665;22;20143;-83
2023/01/14 01:26:25;;;;;;;17.80;2.85;;;6.30;99.90;;;;;;6270661;22;20756;-84
2023/01/14 01:28:54;;;;;;;12.52;2.38;;;6.20;99.90;;;;;;6267761;22;20231;-83
2023/01/14 01:31:21;;;;;;;12.30;2.47;;;6.20;99.90;;;;;;6285600;22;20187;-81
2023/01/14 01:33:47;;;;;;;6.55;1.65;;;6.30;99.90;;;;;;6273068;22;20194;-82
2023/01/14 01:36:16;;;;;;;8.57;2.40;;;6.30;99.90;;;;;;6271280;22;20543;-84
2023/01/14 01:38:42;;;;;;;6.95;1.75;;;6.30;99.90;;;;;;6266300;22;20367;-83
2023/01/14 01:41:17;;;;;;;10.63;3.00;;;6.30;99.90;;;;;;6270602;22;20233;-84
2023/01/14 01:44:07;;;;;;;12.70;2.08;;;6.20;99.90;;;;;;6267853;22;20457;-82
2023/01/14 01:46:34;;;;;;;14.68;2.42;;;6.20;99.90;;;;;;6262883;22;20175;-83
2023/01/14 01:49:08;;;;;;;7.50;2.22;;;6.20;99.90;;;;;;6266559;22;20158;-86
2023/01/14 01:51:41;;;;;;;3.63;1.42;;;6.20;99.90;;;;;;6267707;22;20225;-81
2023/01/14 01:54:06;;;;;;;4.97;2.08;;;6.10;99.90;;;;;;6271437;22;20197;-82
2023/01/14 01:56:35;;;;;;;12.13;2.00;;;6.20;99.90;;;;;;6269913;22;20160;-85
2023/01/14 01:59:05;;;;;;;20.17;2.53;;;6.20;99.90;;;;;;6270429;22;20269;-83
2023/01/14 02:01:30;;;;;;;11.02;1.80;;;6.20;99.90;;;;;;6263456;22;20176;-83
2023/01/14 02:03:57;;;;;;;20.07;2.63;;;6.20;99.90;;;;;;6264638;22;20210;-83
2023/01/14 02:06:23;;;;;;;13.07;1.92;;;6.20;99.90;;;;;;6268542;22;20175;-83
2023/01/14 02:08:51;;;;;;;6.40;2.10;;;6.20;99.90;;;;;;6264798;22;20516;-83
2023/01/14 02:11:53;;;;;;;9.55;2.15;;;6.10;99.90;;;;;;6269409;22;20230;-83
2023/01/14 02:14:42;;;;;;;9.43;1.90;;;6.00;99.90;;;;;;6267327;22;20660;-82
2023/01/14 02:17:27;;;;;;;10.68;2.05;;;5.90;99.90;;;;;;6269409;22;20124;-83
2023/01/14 02:20:18;;;;;;;13.57;2.00;;;5.90;99.90;;;;;;6271327;22;20158;-83
2023/01/14 02:23:34;;;;;;;8.43;2.22;;;5.90;99.90;;;;;;6267147;22;20174;-83
2023/01/14 02:26:48;;;;;;;6.18;1.48;;;5.80;99.90;;;;;;6198700;22;20495;-82
2023/01/14 02:29:32;;;;;;;6.63;2.20;;;5.80;99.90;;;;;;6265166;22;20262;-84
2023/01/14 02:32:21;;;;;;;7.47;1.60;;;5.90;99.90;;;;;;6265520;22;20164;-83
2023/01/14 02:35:08;;;;;;;13.88;1.90;;;5.80;99.90;;;;;;6266259;22;20247;-84
2023/01/14 02:37:49;;;;;;;9.30;2.00;;;5.70;99.90;;;;;;6264339;22;20183;-82
2023/01/14 02:40:20;;;;;;;8.43;2.22;;;5.70;99.90;;;;;;6264188;22;20899;-82
2023/01/14 02:45:51;;;;;;;6.18;1.80;;;5.50;99.90;;;;;;6263979;22;20193;-82
2023/01/14 02:48:20;;;;;;;11.45;2.72;;;5.40;99.90;;;;;;6268517;22;20230;-83
2023/01/14 02:50:46;;;;;;;6.43;1.65;;;5.50;99.90;;;;;;6272794;22;20140;-83
2023/01/14 02:53:16;;;;;;;14.15;2.28;;;5.50;99.90;;;;;;6270104;22;20190;-83
2023/01/14 02:55:42;;;;;;;8.13;1.80;;;5.70;99.90;;;;;;6272093;22;20132;-84
2023/01/14 02:58:32;;;;;;;8.33;1.77;;;5.80;99.90;;;;;;6270630;22;20186;-84
2023/01/14 03:01:19;;;;;;;8.35;1.90;;;5.70;99.90;;;;;;6267813;22;20148;-84
2023/01/14 03:04:12;;;;;;;12.52;2.72;;;5.60;99.90;;;;;;6274684;22;20164;-82
2023/01/14 03:07:13;;;;;;;4.20;1.58;;;5.50;99.90;;;;;;6266795;22;20224;-82
2023/01/14 03:10:01;;;;;;;14.10;2.03;;;5.40;99.90;;;;;;6267005;22;20158;-84
2023/01/14 03:12:33;;;;;;;13.35;2.03;;;5.20;99.90;;;;;;6265354;22;20180;-83
2023/01/14 03:15:19;;;;;;;7.82;2.10;;;5.20;99.90;;;;;;6268937;22;20140;-83
2023/01/14 03:18:03;;;;;;;11.52;1.90;;;5.20;99.90;;;;;;6265578;22;20143;-84
2023/01/14 03:20:36;;;;;;;17.25;1.92;;;5.20;99.90;;;;;;6267972;22;20219;-83
2023/01/14 03:23:05;;;;;;;8.07;2.10;;;5.10;99.90;;;;;;6265715;22;20171;-85
2023/01/14 03:25:35;;;;;;;11.27;1.73;;;5.20;99.90;;;;;;6265231;22;20318;-83
2023/01/14 03:28:04;;;;;;;11.32;2.20;;;5.20;99.90;;;;;;6266391;22;20267;-83
2023/01/14 03:30:35;;;;;;;16.48;2.17;;;5.40;99.90;;;;;;6275432;22;20163;-81
2023/01/14 03:33:10;;;;;;;7.70;1.85;;;5.30;99.90;;;;;;6275438;22;20175;-83
2023/01/14 03:35:42;;;;;;;6.72;1.40;;;5.30;99.90;;;;;;6272733;22;20143;-85
2023/01/14 03:38:12;;;;;;;7.60;2.10;;;5.30;99.90;;;;;;6279645;22;20190;-83
2023/01/14 03:40:40;;;;;;;8.43;2.60;;;5.30;99.90;;;;;;6279394;22;20143;-84
2023/01/14 03:43:12;;;;;;;9.15;3.00;;;5.30;99.90;;;;;;6279342;22;20202;-82
2023/01/14 03:45:40;;;;;;;6.68;1.75;;;5.20;99.90;;;;;;6275781;22;20691;-82
2023/01/14 03:48:07;;;;;;;5.60;1.42;;;5.30;99.90;;;;;;6275868;22;20211;-83
2023/01/14 03:50:48;;;;;;;14.68;2.38;;;5.30;99.90;;;;;;6276367;22;20148;-83
2023/01/14 03:53:17;;;;;;;11.10;1.95;;;5.30;99.90;;;;;;6277201;22;20171;-82
2023/01/14 03:55:48;;;;;;;4.40;1.33;;;5.20;99.90;;;;;;6273176;22;20212;-83
2023/01/14 03:58:33;;;;;;;4.95;1.40;;;5.10;99.90;;;;;;6276527;22;20628;-83
2023/01/14 04:01:10;;;;;;;11.70;1.60;;;5.10;99.90;;;;;;6272185;22;20144;-82
2023/01/14 04:03:36;;;;;;;11.10;1.52;;;5.10;99.90;;;;;;6272240;22;20151;-83
2023/01/14 04:06:03;;;;;;;4.43;1.40;;;5.10;99.90;;;;;;6271642;22;20558;-83
2023/01/14 04:08:28;;;;;;;2.17;0.73;;;5.10;99.90;;;;;;6271497;22;20201;-83
2023/01/14 04:10:54;;;;;;;1.90;1.10;;;5.00;99.90;;;;;;6274767;22;20161;-83
2023/01/14 04:16:04;;;;;;;6.70;1.73;;;4.90;99.90;;;;;;6273516;22;20143;-84
2023/01/14 04:18:29;;;;;;;17.17;1.58;;;4.80;99.90;;;;;;6275075;22;20159;-80
2023/01/14 04:20:55;;;;;;;15.07;2.20;;;4.80;99.90;;;;;;6274499;22;20207;-80
2023/01/14 04:23:21;;;;;;;3.77;1.63;;;4.70;99.90;;;;;;6272707;22;20226;-81
2023/01/14 04:25:46;;;;;;;4.90;1.50;;;4.60;99.90;;;;;;6271621;22;20190;-81
2023/01/14 04:28:12;;;;;;;8.67;2.40;;;4.70;99.90;;;;;;6272913;22;20156;-82
2023/01/14 04:30:38;;;;;;;16.53;2.90;;;4.70;99.90;;;;;;6272428;22;20167;-81
2023/01/14 04:33:03;;;;;;;6.30;1.33;;;4.70;99.90;;;;;;6272971;22;20179;-83
2023/01/14 04:35:29;;;;;;;17.73;2.13;;;4.80;99.90;;;;;;6271585;22;20366;-83
2023/01/14 04:37:54;;;;;;;8.10;2.27;;;4.80;99.90;;;;;;6273343;22;20156;-84
2023/01/14 04:40:21;;;;;;;2.73;1.43;;;4.90;99.90;;;;;;6270984;22;20156;-81
2023/01/14 04:42:47;;;;;;;8.65;1.45;;;4.90;99.90;;;;;;6275195;22;20168;-81
2023/01/14 04:45:12;;;;;;;3.20;1.50;;;4.90;99.90;;;;;;6279461;22;20148;-81
2023/01/14 04:47:38;;;;;;;5.10;1.87;;;4.90;99.90;;;;;;6288633;22;20155;-82
2023/01/14 04:50:30;;;;;;;3.67;1.10;;;4.90;99.90;;;;;;6276517;22;20148;-82
2023/01/14 04:52:51;;;;;;;10.23;1.70;;;5.00;99.90;;;;;;6277892;22;20418;-81
2023/01/14 04:55:17;;;;;;;2.40;1.00;;;5.00;99.90;;;;;;6277152;22;20163;-81
2023/01/14 04:57:43;;;;;;;6.07;1.13;;;5.10;99.90;;;;;;6275855;22;20401;-80
2023/01/14 05:00:09;;;;;;;4.77;1.30;;;5.10;99.90;;;;;;6282302;22;20389;-81
2023/01/14 05:02:35;;;;;;;6.30;1.05;;;5.10;99.90;;;;;;6287798;22;20183;-81
2023/01/14 05:05:00;;;;;;;4.77;1.70;;;5.10;99.90;;;;;;6287255;22;20144;-81
2023/01/14 05:07:26;;;;;;;1.43;0.80;;;5.10;99.90;;;;;;6287241;22;20176;-82
2023/01/14 05:09:51;;;;;;;2.80;1.30;;;5.10;99.90;;;;;;6282129;22;20175;-82
2023/01/14 05:12:17;;;;;;;3.83;1.57;;;5.10;99.90;;;;;;6280113;22;20171;-82
2023/01/14 05:14:42;;;;;;;3.47;0.83;;;5.00;99.90;;;;;;6283676;22;20293;-80
2023/01/14 05:17:08;;;;;;;8.00;1.30;;;5.00;99.90;;;;;;6281309;22;20151;-82
2023/01/14 05:19:33;;;;;;;6.70;1.70;;;5.00;99.90;;;;;;6293080;22;20217;-84
2023/01/14 05:22:00;;;;;;;3.20;0.93;;;5.00;99.90;;;;;;6284529;22;20168;-82
2023/01/14 05:24:26;;;;;;;3.35;1.23;;;5.00;99.90;;;;;;6284851;22;20144;-80
2023/01/14 05:26:51;;;;;;;8.07;1.00;;;5.10;99.90;;;;;;6279227;22;20278;-81
2023/01/14 05:29:17;;;;;;;5.40;0.83;;;5.10;99.90;;;;;;6278806;22;20151;-82
2023/01/14 05:31:43;;;;;;;9.93;1.30;;;5.10;99.90;;;;;;6280592;22;20164;-81
2023/01/14 05:34:10;;;;;;;5.57;1.88;;;5.20;99.90;;;;;;6278656;22;20148;-81
2023/01/14 05:36:35;;;;;;;6.97;2.00;;;5.20;99.90;;;;;;6278976;22;20231;-80
2023/01/14 05:39:01;;;;;;;4.47;1.50;;;5.20;99.90;;;;;;6276502;22;20163;-80
2023/01/14 05:41:26;;;;;;;3.80;1.30;;;5.20;99.90;;;;;;6274075;22;20175;-80
2023/01/14 05:46:36;;;;;;;4.45;1.20;;;5.20;99.90;;;;;;6279659;22;20240;-81
2023/01/14 05:49:01;;;;;;;1.73;0.80;;;5.20;99.90;;;;;;6272069;22;20148;-81
2023/01/14 05:51:27;;;;;;;1.33;0.90;;;5.20;99.90;;;;;;6272384;22;20172;-81
2023/01/14 05:53:52;;;;;;;4.27;1.37;;;5.20;99.90;;;;;;6273180;22;20143;-81
2023/01/14 05:56:18;;;;;;;4.97;1.90;;;5.30;99.90;;;;;;6271342;22;20152;-83
2023/01/14 05:58:44;;;;;;;2.97;1.20;;;5.30;99.90;;;;;;6271012;22;20171;-82
2023/01/14 06:06:52;;;;;;;12.13;2.45;;;5.40;99.90;;;;;;6270765;22;20178;-80
2023/01/14 06:09:19;;;;;;;8.97;1.40;;;5.40;99.90;;;;;;6269297;22;20152;-83
2023/01/14 06:12:01;;;;;;;6.93;2.00;;;5.40;99.90;;;;;;6271371;22;20179;-82
2023/01/14 06:14:33;;;;;;;4.57;1.48;;;5.30;99.90;;;;;;6278188;22;20614;-82
2023/01/14 06:17:02;;;;;;;10.45;2.30;;;5.40;99.90;;;;;;6276652;22;20140;-82
2023/01/14 06:19:28;;;;;;;2.65;1.70;;;5.50;99.90;;;;;;6274501;22;20151;-82
2023/01/14 06:21:53;;;;;;;14.50;4.80;;;5.50;99.90;;;;;;6274894;22;20175;-82
2023/01/14 06:24:19;;;;;;;2.50;1.40;;;5.50;99.90;;;;;;6277183;22;20530;-82
2023/01/14 06:26:44;;;;;;;2.43;1.00;;;5.50;99.90;;;;;;6277326;22;20171;-83
2023/01/14 06:29:12;;;;;;;3.23;2.10;;;5.40;99.90;;;;;;6276529;22;20155;-81
2023/01/14 06:31:38;;;;;;;5.20;1.60;;;5.30;99.90;;;;;;6274318;22;20205;-83
2023/01/14 06:34:04;;;;;;;6.57;4.93;;;5.30;99.90;;;;;;6267015;22;20152;-83
2023/01/14 06:36:31;;;;;;;1.67;1.57;;;5.20;99.90;;;;;;6265233;22;20721;-82
2023/01/14 06:38:57;;;;;;;8.88;1.65;;;5.00;99.90;;;;;;6268441;22;20206;-83
2023/01/14 06:41:23;;;;;;;15.13;1.52;;;5.00;99.90;;;;;;6270538;22;20179;-82
2023/01/14 06:43:49;;;;;;;7.03;1.87;;;5.10;99.90;;;;;;6274109;22;20160;-82
2023/01/14 06:46:15;;;;;;;2.43;2.00;;;5.20;99.90;;;;;;6269681;22;20476;-81
2023/01/14 06:48:42;;;;;;;9.88;2.60;;;5.10;99.90;;;;;;6269415;22;20146;-82
2023/01/14 06:51:14;;;;;;;7.00;1.40;;;5.20;99.90;;;;;;6267715;22;20175;-85
2023/01/14 06:53:40;;;;;;;7.72;0.95;;;5.20;99.90;;;;;;6266571;22;20223;-85
2023/01/14 06:56:11;;;;;;;7.25;1.55;;;5.20;99.90;;;;;;6270095;22;20247;-84
2023/01/14 06:58:37;;;;;;;3.25;1.02;;;5.30;99.90;;;;;;6279682;22;20175;-81
2023/01/14 07:01:03;;;;;;;3.03;1.33;;;5.20;99.90;;;;;;6268254;22;20148;-84
2023/01/14 07:03:29;;;;;;;3.28;1.40;;;5.30;99.90;;;;;;6259095;22;20155;-81
2023/01/14 07:05:54;;;;;;;4.13;1.07;;;5.30;99.90;;;;;;6265589;22;20590;-84
2023/01/14 07:08:21;;;;;;;3.23;1.07;;;5.30;99.90;;;;;;6263855;22;20382;-83
2023/01/14 07:10:49;;;;;;;4.57;1.30;;;5.40;99.90;;;;;;6269661;22;20217;-81
2023/01/14 07:13:18;;;;;;;3.80;1.80;;;5.50;99.90;;;;;;6265150;22;20754;-83
2023/01/14 07:15:45;;;;;;;3.92;0.90;;;5.50;99.90;;;;;;6264132;22;20201;-84
2023/01/14 07:18:11;;;;;;;1.65;1.05;;;5.50;99.90;;;;;;6263888;22;20235;-83
2023/01/14 07:20:37;;;;;;;5.38;1.17;;;5.60;99.90;;;;;;6265038;22;20159;-85
2023/01/14 07:23:03;;;;;;;5.97;1.10;;;5.60;99.90;;;;;;6264648;22;20206;-85
2023/01/14 07:25:28;;;;;;;5.40;1.53;;;5.60;99.90;;;;;;6262920;22;20880;-83
2023/01/14 07:27:54;;;;;;;3.50;1.40;;;5.70;99.90;;;;;;6270624;22;20497;-83
2023/01/14 07:30:19;;;;;;;4.17;1.00;;;5.60;99.90;;;;;;6268583;22;20559;-81
2023/01/14 07:32:45;;;;;;;5.10;1.30;;;5.60;99.90;;;;;;6277970;22;20158;-81
2023/01/14 07:35:10;;;;;;;3.83;1.27;;;5.50;99.90;;;;;;6268854;22;20534;-82
2023/01/14 07:37:36;;;;;;;3.37;1.23;;;5.60;99.90;;;;;;6264439;22;20160;-83
2023/01/14 07:40:03;;;;;;;3.87;1.37;;;5.60;99.90;;;;;;6269077;22;20170;-82
2023/01/14 07:42:28;;;;;;;5.10;1.23;;;5.60;99.90;;;;;;6269346;22;20172;-83
2023/01/14 07:44:54;;;;;;;12.77;2.90;;;5.70;99.90;;;;;;6267174;22;20158;-83
2023/01/14 07:47:19;;;;;;;11.37;1.77;;;5.80;99.90;;;;;;6261291;22;20603;-83
2023/01/14 07:49:45;;;;;;;1.33;1.23;;;5.80;99.90;;;;;;6263634;22;20159;-84
2023/01/14 07:52:12;;;;;;;11.90;1.87;;;5.80;99.90;;;;;;6264960;22;20184;-83
2023/01/14 07:54:39;;;;;;;7.68;1.70;;;5.90;99.90;;;;;;6264447;22;20859;-83
2023/01/14 07:57:06;;;;;;;10.73;1.25;;;5.90;99.90;;;;;;6266370;22;20143;-81
2023/01/14 07:59:32;;;;;;;2.22;1.10;;;5.90;99.90;;;;;;6266705;22;20238;-83
2023/01/14 08:01:57;;;;;;;4.07;2.40;;;6.00;99.90;;;;;;6266748;22;20206;-82
2023/01/14 08:04:23;;;;;;;9.47;4.33;;;6.00;99.90;;;;;;6266567;22;20155;-83
2023/01/14 08:06:48;;;;;;;6.87;1.90;;;6.10;99.90;;;;;;6269251;22;20171;-83
2023/01/14 08:09:15;;;;;;;16.73;2.77;;;6.10;99.90;;;;;;6268401;22;20140;-82
2023/01/14 08:11:41;;;;;;;6.63;2.15;;;6.20;99.90;;;;;;6266133;22;20225;-82
2023/01/14 08:14:06;;;;;;;5.17;2.40;;;6.20;99.90;;;;;;6264683;22;20144;-81
2023/01/14 08:16:32;;;;;;;10.67;3.90;;;6.20;99.90;;;;;;6267280;22;20194;-84
2023/01/14 08:18:57;;;;;;;5.57;2.90;;;6.30;99.90;;;;;;6266837;22;20148;-84
2023/01/14 08:21:23;;;;;;;16.83;4.10;;;6.30;99.90;;;;;;6260777;22;20278;-85
2023/01/14 08:23:48;;;;;;;12.40;2.60;;;6.30;99.90;;;;;;6267595;22;20194;-82
2023/01/14 08:26:14;;;;;;;7.90;2.80;;;6.30;99.90;;;;;;6265879;22;21120;-84
2023/01/14 08:28:40;;;;;;;11.17;2.90;;;6.30;99.90;;;;;;6267117;22;20148;-84
2023/01/14 08:31:13;;;;;;;14.23;3.58;;;6.40;99.90;;;;;;6265499;22;20746;-83
2023/01/14 08:33:40;;;;;;;4.10;1.73;;;6.40;99.90;;;;;;6266980;22;20144;-83
2023/01/14 08:36:09;;;;;;;2.42;1.58;;;6.40;99.90;;;;;;6266030;22;20156;-84
2023/01/14 08:38:36;;;;;;;7.57;1.70;;;6.50;99.90;;;;;;6269195;22;20163;-82
2023/01/14 08:41:04;;;;;;;5.97;2.08;;;6.50;99.90;;;;;;6268066;22;20144;-81
2023/01/14 08:43:29;;;;;;;2.60;1.67;;;6.60;99.90;;;;;;6280588;22;20151;-83
2023/01/14 08:45:55;;;;;;;2.73;1.60;;;6.60;99.90;;;;;;6281413;22;20182;-82
2023/01/14 08:48:20;;;;;;;3.70;1.33;;;6.60;99.90;;;;;;6272767;22;20539;-83
2023/01/14 08:50:46;;;;;;;5.50;1.40;;;6.70;99.90;;;;;;6271309;22;20254;-85
2023/01/14 08:53:11;;;;;;;4.73;1.30;;;6.70;99.90;;;;;;6267965;22;20207;-82
2023/01/14 08:55:38;;;;;;;8.73;1.17;;;6.80;99.90;;;;;;6266545;22;20186;-83
2023/01/14 08:58:06;;;;;;;7.32;1.75;;;6.80;99.90;;;;;;6271236;22;20489;-83
2023/01/14 09:00:32;;;;;;;3.45;1.05;;;6.80;99.90;;;;;;6274078;22;20201;-82
2023/01/14 09:02:58;;;;;;;10.43;1.97;;;6.80;99.90;;;;;;6281489;22;20176;-82
2023/01/14 09:05:24;;;;;;;4.05;1.67;;;6.90;99.90;;;;;;6271986;22;20147;-83
2023/01/14 09:18:48;;;;;;;4.97;1.77;;;7.00;99.90;;;;;;6266155;22;20198;-83
2023/01/14 09:21:14;;;;;;;7.67;1.57;;;7.10;99.90;;;;;;6257843;22;20179;-83
2023/01/14 09:23:40;;;;;;;9.53;2.10;;;7.10;99.90;;;;;;6264601;22;20247;-83
2023/01/14 09:26:05;;;;;;;2.17;1.03;;;7.20;99.90;;;;;;6264044;22;20974;-84
2023/01/14 09:28:31;;;;;;;8.70;1.50;;;7.20;99.90;;;;;;6266797;22;20242;-82
2023/01/14 09:30:57;;;;;;;4.27;1.23;;;7.30;99.90;;;;;;6269262;22;20544;-82
2023/01/14 09:33:23;;;;;;;1.88;0.90;;;7.40;99.90;;;;;;6273032;22;20136;-84
2023/01/14 09:35:48;;;;;;;6.13;1.60;;;7.40;99.90;;;;;;6265055;22;20610;-83
2023/01/14 09:38:14;;;;;;;5.23;1.83;;;7.50;99.90;;;;;;6266060;22;20154;-81
2023/01/14 09:40:40;;;;;;;3.87;1.90;;;7.60;99.90;;;;;;6269871;22;20148;-82
2023/01/14 09:43:15;;;;;;;9.50;2.58;;;7.60;99.90;;;;;;6266442;22;20489;-81
2023/01/14 09:45:40;;;;;;;14.70;2.03;;;7.80;99.90;;;;;;6265600;22;20170;-81
2023/01/14 09:48:19;;;;;;;8.37;1.93;;;7.90;99.90;;;;;;6270806;22;20156;-81
2023/01/14 09:50:50;;;;;;;6.03;1.83;;;7.90;99.90;;;;;;6274681;22;20133;-82
2023/01/14 09:53:38;;;;;;;5.10;1.65;;;8.00;99.90;;;;;;6271427;22;20164;-83
2023/01/14 09:56:28;;;;;;;5.03;1.42;;;8.00;99.90;;;;;;6270006;22;20158;-84
2023/01/14 09:59:06;;;;;;;4.80;0.70;;;8.00;99.90;;;;;;6277656;22;20162;-82
2023/01/14 10:01:48;;;;;;;5.82;1.90;;;7.90;99.90;;;;;;6272950;22;20275;-85
2023/01/14 10:04:23;;;;;;;4.43;1.60;;;8.00;99.90;;;;;;6270517;22;20193;-83
2023/01/14 10:06:51;;;;;;;9.02;2.13;;;8.10;99.90;;;;;;6266682;22;20231;-82
2023/01/14 10:09:30;;;;;;;8.10;1.55;;;8.10;99.90;;;;;;6270908;22;20813;-83
2023/01/14 10:11:59;;;;;;;3.50;1.52;;;8.20;99.90;;;;;;6269404;22;20164;-82
2023/01/14 10:14:33;;;;;;;4.10;1.48;;;8.30;99.90;;;;;;6271381;22;20152;-84
2023/01/14 10:17:04;;;;;;;4.60;1.45;;;8.30;99.90;;;;;;6271820;22;20140;-85
2023/01/14 10:19:45;;;;;;;3.63;1.13;;;8.50;99.90;;;;;;6269350;22;20234;-84
2023/01/14 10:22:34;;;;;;;8.55;1.70;;;8.60;99.90;;;;;;6271032;22;20237;-84
2023/01/14 10:25:00;;;;;;;7.35;1.45;;;8.70;99.90;;;;;;6265800;22;20160;-82
2023/01/14 10:27:28;;;;;;;2.70;1.10;;;8.80;99.90;;;;;;6268647;22;20199;-83
2023/01/14 10:29:59;;;;;;;6.55;1.90;;;8.80;99.90;;;;;;6270782;22;20609;-82
2023/01/14 10:32:25;;;;;;;2.03;1.00;;;8.80;99.90;;;;;;6268563;22;20170;-82
2023/01/14 10:34:55;;;;;;;2.30;1.27;;;8.90;99.90;;;;;;6265846;22;20181;-82
2023/01/14 10:37:20;;;;;;;5.40;1.92;;;8.80;99.90;;;;;;6265891;22;20667;-83
2023/01/14 10:39:50;;;;;;;5.03;1.73;;;8.90;99.90;;;;;;6260523;22;20166;-83
2023/01/14 10:42:21;;;;;;;6.82;1.40;;;9.20;99.90;;;;;;6261300;22;20172;-84
2023/01/14 10:44:47;;;;;;;5.70;1.55;;;9.40;99.90;;;;;;6264786;22;20148;-86
2023/01/14 10:47:17;;;;;;;6.43;2.27;;;9.40;99.90;;;;;;6263529;22;20186;-87
2023/01/14 10:49:50;;;;;;;6.13;1.23;;;9.30;99.90;;;;;;6261208;22;20289;-82
2023/01/14 10:52:27;;;;;;;3.58;2.05;;;9.30;99.90;;;;;;6264789;22;20849;-83
2023/01/14 10:55:19;;;;;;;6.40;1.48;;;9.50;99.90;;;;;;6266471;22;20159;-84
2023/01/14 10:57:50;;;;;;;4.18;1.58;;;9.80;99.90;;;;;;6264872;22;20196;-85
2023/01/14 11:00:35;;;;;;;8.10;1.65;;;9.70;99.90;;;;;;6269396;22;20180;-82
2023/01/14 11:03:04;;;;;;;3.55;1.90;;;9.90;99.90;;;;;;6263019;22;20789;-81
2023/01/14 11:05:32;;;;;;;3.53;1.52;;;10.00;99.90;;;;;;6269732;22;20159;-85
2023/01/14 11:08:16;;;;;;;8.52;1.35;;;9.90;99.90;;;;;;6268531;22;20837;-83
2023/01/14 11:10:42;;;;;;;7.22;1.70;;;9.80;99.90;;;;;;6268770;22;20586;-84
2023/01/14 11:13:48;;;;;;;5.03;1.33;;;9.80;99.90;;;;;;6265592;22;20163;-83
2023/01/14 11:16:25;;;;;;;5.20;1.23;;;9.60;99.90;;;;;;6272083;22;20374;-82
2023/01/14 11:19:00;;;;;;;2.42;1.15;;;9.40;99.90;;;;;;6278206;22;20147;-81
2023/01/14 11:21:39;;;;;;;4.18;1.40;;;9.60;99.90;;;;;;6263185;22;20167;-83
2023/01/14 11:24:07;;;;;;;1.33;0.70;;;10.30;99.90;;;;;;6264527;22;20600;-83
2023/01/14 11:26:40;;;;;;;1.80;1.02;;;9.80;99.90;;;;;;6266410;22;20190;-83
2023/01/14 11:29:23;;;;;;;4.30;1.30;;;9.90;99.90;;;;;;6267374;22;20315;-82
2023/01/14 11:31:52;;;;;;;6.00;1.48;;;9.90;99.90;;;;;;6267614;22;20188;-82
2023/01/14 11:34:28;;;;;;;6.57;1.08;;;10.10;99.90;;;;;;6267932;22;20147;-82
2023/01/14 11:37:10;;;;;;;3.20;1.13;;;10.20;99.90;;;;;;6259184;22;20661;-82
2023/01/14 11:39:38;;;;;;;2.45;1.13;;;10.20;99.90;;;;;;6253492;22;20158;-83
2023/01/14 11:42:32;;;;;;;5.03;1.77;;;10.20;99.90;;;;;;6260235;22;20539;-82
2023/01/14 11:45:14;;;;;;;1.90;0.90;;;10.30;99.90;;;;;;6261511;22;20217;-81
2023/01/14 11:47:49;;;;;;;2.65;1.27;;;10.00;99.90;;;;;;6262246;22;20178;-83
2023/01/14 11:50:16;;;;;;;3.95;1.33;;;10.10;99.90;;;;;;6263718;22;20131;-81
2023/01/14 11:52:57;;;;;;;3.50;1.13;;;10.20;99.90;;;;;;6258485;22;20190;-82
2023/01/14 11:55:23;;;;;;;7.40;3.08;;;10.40;99.90;;;;;;6265710;22;20800;-83
2023/01/14 11:57:49;;;;;;;2.88;1.40;;;10.50;99.90;;;;;;6235575;23;20172;-80
2023/01/14 12:00:15;;;;;;;2.47;1.37;;;10.50;99.90;;;;;;6232960;23;20797;-82
2023/01/14 12:02:47;;;;;;;2.83;0.87;;;10.50;99.90;;;;;;6238100;23;20199;-85
2023/01/14 12:05:18;;;;;;;4.25;1.08;;;10.30;99.90;;;;;;6231524;22;20735;-84
2023/01/14 12:07:53;;;;;;;2.10;1.10;;;10.10;99.90;;;;;;6232209;23;20188;-85
2023/01/14 12:10:22;;;;;;;3.50;1.15;;;10.10;99.90;;;;;;6230005;22;20172;-83
2023/01/14 12:18:56;;;;;;;2.72;1.42;;;10.20;99.90;;;;;;6230020;23;20143;-82
2023/01/14 12:21:34;;;;;;;5.07;1.20;;;10.20;99.90;;;;;;6232975;22;20168;-81
2023/01/14 12:24:22;;;;;;;15.23;1.35;;;10.20;99.90;;;;;;6231317;22;20338;-81
2023/01/14 12:26:51;;;;;;;3.55;1.00;;;10.10;99.90;;;;;;6231208;22;20290;-84
2023/01/14 12:29:30;;;;;;;1.80;1.33;;;9.80;99.90;;;;;;6233552;23;20149;-83
2023/01/14 12:32:18;;;;;;;7.13;3.33;;;9.80;99.90;;;;;;6245361;22;20191;-84
2023/01/14 12:34:59;;;;;;;3.80;1.70;;;9.60;99.90;;;;;;6233608;23;20160;-84
2023/01/14 12:37:38;;;;;;;6.55;2.13;;;9.50;99.90;;;;;;6236316;22;20227;-82
2023/01/14 12:46:12;;;;;;;3.80;1.60;;;9.40;99.90;;;;;;6241273;23;20195;-81
2023/01/14 12:48:39;;;;;;;6.05;2.25;;;9.40;99.90;;;;;;6237130;23;20145;-82
2023/01/14 12:51:21;;;;;;;2.85;1.40;;;9.30;99.90;;;;;;6236459;22;20160;-85
2023/01/14 12:53:53;;;;;;;2.42;0.90;;;9.40;99.90;;;;;;6233678;23;20649;-83
2023/01/14 12:56:22;;;;;;;1.98;1.33;;;9.50;99.90;;;;;;6238692;22;20143;-83
2023/01/14 12:59:01;;;;;;;5.00;1.33;;;9.50;99.90;;;;;;6239172;23;20167;-82
2023/01/14 13:01:52;;;;;;;3.20;0.93;;;9.40;99.90;;;;;;6233231;23;20198;-83
2023/01/14 13:04:21;;;;;;;5.03;1.85;;;9.50;99.90;;;;;;6243316;22;20479;-84
2023/01/14 13:06:57;;;;;;;4.82;1.33;;;9.60;99.90;;;;;;6235112;22;20199;-83
2023/01/14 13:09:28;;;;;;;18.13;9.48;;;9.60;99.90;;;;;;6236819;23;20561;-83
2023/01/14 13:11:55;;;;;;;12.55;5.30;;;9.50;99.90;;;;;;6237842;23;20818;-84
2023/01/14 13:14:38;;;;;;;9.38;3.78;;;9.50;99.90;;;;;;6237718;22;20163;-82
2023/01/14 13:17:31;;;;;;;3.72;2.10;;;9.50;99.90;;;;;;6237379;22;20143;-83
2023/01/14 13:19:57;;;;;;;6.90;2.97;;;9.50;99.90;;;;;;6217215;23;20231;-84
2023/01/14 13:22:45;;;;;;;2.35;1.75;;;9.50;99.90;;;;;;6230668;22;20199;-83
2023/01/14 13:25:32;;;;;;;3.25;1.23;;;9.50;99.90;;;;;;6235572;23;20175;-83
2023/01/14 13:28:23;;;;;;;2.65;1.52;;;9.60;99.90;;;;;;6231352;23;20598;-82
2023/01/14 13:30:51;;;;;;;1.52;1.20;;;9.50;99.90;;;;;;6237165;23;20152;-84
2023/01/14 13:33:26;;;;;;;0.90;0.88;;;9.50;99.90;;;;;;6232606;23;20171;-85
2023/01/14 13:36:10;;;;;;;6.88;1.38;;;9.40;99.90;;;;;;6229668;22;20929;-83
2023/01/14 13:39:01;;;;;;;2.40;0.95;;;9.40;99.90;;;;;;6244334;23;20156;-81
2023/01/14 13:41:43;;;;;;;2.95;0.85;;;9.40;99.90;;;;;;6214706;23;20183;-84
2023/01/14 13:44:31;;;;;;;2.60;1.00;;;9.30;99.90;;;;;;6250233;22;20132;-80
2023/01/14 13:46:59;;;;;;;1.70;1.15;;;9.30;99.90;;;;;;6213269;23;20180;-83
2023/01/14 13:49:41;;;;;;;1.95;1.30;;;9.20;99.90;;;;;;6234731;23;20248;-83
2023/01/14 13:52:25;;;;;;;8.75;1.13;;;9.20;99.90;;;;;;6234124;23;20241;-82